createdAt,value
2019-02-07T00:02:12.249Z,105.20
2019-02-07T00:04:42.895Z,104.47
2019-02-07T00:07:13.928Z,100.87
2019-02-07T00:09:44.661Z,106.90
2019-02-07T00:12:15.299Z,107.73
2019-02-07T00:14:45.978Z,106.77
2019-02-07T00:17:16.651Z,103.53
2019-02-07T00:19:47.556Z,105.70
2019-02-07T00:22:18.031Z,105.77
2019-02-07T00:24:48.652Z,109.67
2019-02-07T00:27:19.378Z,98.10
2019-02-07T00:29:49.997Z,100.80
2019-02-07T00:32:20.730Z,91.43
2019-02-07T00:34:51.489Z,104.53
2019-02-07T00:37:22.128Z,99.23
2019-02-07T00:39:52.854Z,99.00
2019-02-07T00:42:23.579Z,99.87
2019-02-07T00:44:54.354Z,99.70
2019-02-07T00:47:25.357Z,104.20
2019-02-07T00:49:56.012Z,104.37
2019-02-07T00:52:26.671Z,97.10
2019-02-07T00:54:57.192Z,99.93
2019-02-07T00:57:27.947Z,89.20
2019-02-07T00:59:58.852Z,94.77
2019-02-07T01:02:29.781Z,90.03
2019-02-07T01:05:00.466Z,95.53
2019-02-07T01:07:31.157Z,86.67
2019-02-07T01:10:01.883Z,100.20
2019-02-07T01:12:32.557Z,95.87
2019-02-07T01:15:03.578Z,99.00
2019-02-07T01:17:34.415Z,92.60
2019-02-07T01:20:07.014Z,98.20
2019-02-07T01:22:37.752Z,100.90
2019-02-07T01:25:10.486Z,94.07
2019-02-07T01:27:41.109Z,102.47
2019-02-07T01:30:14.817Z,104.73
2019-02-07T01:32:45.858Z,105.47
2019-02-07T01:35:16.938Z,96.40
2019-02-07T01:37:47.828Z,100.73
2019-02-07T01:40:20.071Z,94.27
2019-02-07T01:42:50.701Z,99.37
2019-02-07T01:45:22.011Z,94.63
2019-02-07T01:47:52.750Z,96.10
2019-02-07T01:50:24.393Z,91.53
2019-02-07T01:52:55.447Z,84.87
2019-02-07T01:55:26.113Z,103.23
2019-02-07T01:57:57.073Z,95.53
2019-02-07T02:00:27.867Z,90.77
2019-02-07T02:02:58.446Z,85.93
2019-02-07T02:05:29.789Z,95.27
2019-02-07T02:08:00.399Z,89.13
2019-02-07T02:10:31.190Z,96.37
2019-02-07T02:13:01.871Z,102.17
2019-02-07T02:15:32.595Z,92.93
2019-02-07T02:18:03.333Z,91.90
2019-02-07T02:20:34.076Z,74.70
2019-02-07T02:23:04.817Z,83.17
2019-02-07T02:25:35.710Z,90.63
2019-02-07T02:28:06.780Z,92.53
2019-02-07T02:30:37.867Z,87.93
2019-02-07T02:33:08.438Z,82.33
2019-02-07T02:35:39.049Z,93.07
2019-02-07T02:38:09.604Z,85.53
2019-02-07T02:40:40.240Z,85.90
2019-02-07T02:43:11.302Z,91.90
2019-02-07T02:45:42.388Z,85.20
2019-02-07T02:48:13.047Z,82.67
2019-02-07T02:50:43.637Z,90.53
2019-02-07T02:53:14.384Z,89.93
2019-02-07T02:55:45.473Z,82.30
2019-02-07T02:58:19.532Z,89.47
2019-02-07T03:01:09.247Z,82.80
2019-02-07T03:03:58.853Z,93.00
2019-02-07T03:06:48.487Z,94.67
2019-02-07T03:09:38.033Z,88.27
2019-02-07T03:12:27.949Z,94.93
2019-02-07T03:15:17.449Z,86.70
2019-02-07T03:18:06.977Z,92.30
2019-02-07T03:20:56.597Z,96.90
2019-02-07T03:23:46.288Z,98.93
2019-02-07T03:26:35.853Z,90.40
2019-02-07T03:29:25.589Z,91.63
2019-02-07T03:32:09.893Z,94.97
2019-02-07T03:34:48.262Z,94.07
2019-02-07T03:37:38.018Z,90.23
2019-02-07T03:40:21.310Z,98.40
2019-02-07T03:43:03.855Z,89.23
2019-02-07T03:45:42.885Z,95.17
2019-02-07T03:48:32.486Z,102.70
2019-02-07T03:51:21.984Z,91.57
2019-02-07T03:54:11.588Z,96.33
2019-02-07T03:57:01.139Z,98.47
2019-02-07T03:59:46.198Z,90.77
2019-02-07T04:02:35.688Z,98.90
2019-02-07T04:05:26.485Z,98.73
2019-02-07T04:08:15.911Z,107.70
2019-02-07T04:11:05.370Z,107.43
2019-02-07T04:13:54.857Z,102.30
2019-02-07T04:16:44.950Z,96.93
2019-02-07T04:19:34.680Z,103.50
2019-02-07T04:22:24.800Z,107.63
2019-02-07T04:25:14.310Z,99.70
2019-02-07T04:28:04.999Z,102.70
2019-02-07T04:30:54.593Z,103.07
2019-02-07T04:33:44.192Z,114.37
2019-02-07T04:36:24.458Z,118.00
2019-02-07T04:39:09.064Z,125.37
2019-02-07T04:41:58.917Z,124.30
2019-02-07T04:44:48.460Z,121.27
2019-02-07T04:47:38.435Z,118.47
2019-02-07T04:50:30.125Z,134.43
2019-02-07T04:53:19.658Z,124.73
2019-02-07T04:56:09.277Z,132.00
2019-02-07T04:58:48.528Z,127.00
2019-02-07T05:01:38.150Z,121.60
2019-02-07T05:04:27.737Z,134.03
2019-02-07T05:07:13.541Z,128.37
2019-02-07T05:10:03.088Z,122.97
2019-02-07T05:12:54.529Z,141.03
2019-02-07T05:15:44.025Z,135.67
2019-02-07T05:18:33.561Z,133.93
2019-02-07T05:21:18.338Z,123.57
2019-02-07T05:24:07.841Z,135.53
2019-02-07T05:26:57.493Z,132.40
2019-02-07T05:29:36.885Z,124.83
2019-02-07T05:32:23.947Z,119.53
2019-02-07T05:35:13.555Z,128.17
2019-02-07T05:38:03.158Z,119.07
2019-02-07T05:40:52.751Z,122.30
2019-02-07T05:43:42.459Z,125.07
2019-02-07T05:46:32.100Z,136.63
2019-02-07T05:49:19.319Z,116.17
2019-02-07T05:52:09.280Z,117.87
2019-02-07T05:54:58.992Z,125.47
2019-02-07T05:57:48.778Z,137.30
2019-02-07T06:00:38.263Z,99.47
2019-02-07T06:03:27.990Z,130.43
2019-02-07T06:06:12.049Z,109.40
2019-02-07T06:09:01.509Z,118.63
2019-02-07T06:11:41.690Z,114.33
2019-02-07T06:14:31.089Z,122.93
2019-02-07T06:17:16.299Z,108.53
2019-02-07T06:19:55.080Z,107.13
2019-02-07T06:22:44.798Z,110.60
2019-02-07T06:25:29.630Z,94.07
2019-02-07T06:28:19.677Z,114.03
2019-02-07T06:31:09.009Z,104.10
2019-02-07T06:33:59.181Z,97.67
2019-02-07T06:36:49.432Z,111.97
2019-02-07T06:42:39.524Z,100.23
2019-02-07T06:45:29.435Z,103.50
2019-02-07T06:48:10.443Z,106.77
2019-02-07T06:50:59.866Z,94.23
2019-02-07T06:53:49.353Z,104.77
2019-02-07T06:56:38.725Z,92.63
2019-02-07T06:59:28.287Z,87.63
2019-02-07T07:02:17.751Z,101.20
2019-02-07T07:05:02.263Z,97.33
2019-02-07T07:07:51.700Z,94.47
2019-02-07T07:10:40.921Z,105.20
2019-02-07T07:13:21.707Z,95.37
2019-02-07T07:16:12.020Z,105.70
2019-02-07T07:19:01.560Z,96.10
2019-02-07T07:21:43.592Z,98.13
2019-02-07T07:24:32.990Z,94.43
2019-02-07T07:27:13.023Z,102.43
2019-02-07T07:30:02.406Z,93.97
2019-02-07T07:32:47.949Z,100.33
2019-02-07T07:35:34.292Z,94.40
2019-02-07T07:38:23.826Z,91.70
2019-02-07T07:41:13.300Z,105.53
2019-02-07T07:44:02.567Z,99.40
2019-02-07T07:46:51.719Z,105.77
2019-02-07T07:49:41.065Z,96.83
2019-02-07T07:52:30.715Z,95.77
2019-02-07T07:55:20.313Z,98.20
2019-02-07T07:58:02.653Z,96.57
2019-02-07T08:00:52.270Z,97.50
2019-02-07T08:03:41.897Z,94.93
2019-02-07T08:06:31.529Z,87.83
2019-02-07T08:09:21.136Z,90.57
2019-02-07T08:12:10.759Z,91.10
2019-02-07T08:14:57.631Z,87.70
2019-02-07T08:17:47.822Z,87.83
2019-02-07T08:20:37.465Z,85.23
2019-02-07T08:23:14.229Z,90.23
2019-02-07T08:26:03.621Z,77.87
2019-02-07T08:28:46.262Z,76.90
2019-02-07T08:31:31.564Z,69.00
2019-02-07T08:34:15.010Z,74.23
2019-02-07T08:37:04.517Z,71.13
2019-02-07T08:39:47.114Z,63.60
2019-02-07T08:42:35.825Z,73.87
2019-02-07T08:45:29.273Z,77.20
2019-02-07T08:48:18.821Z,75.20
2019-02-07T08:51:03.489Z,79.10
2019-02-07T08:53:52.820Z,75.70
2019-02-07T08:56:42.764Z,74.23
2019-02-07T08:59:32.135Z,77.63
2019-02-07T09:02:13.789Z,74.63
2019-02-07T09:05:03.412Z,74.03
2019-02-07T09:07:48.552Z,75.23
2019-02-07T09:10:39.439Z,74.70
2019-02-07T09:13:28.892Z,79.97
2019-02-07T09:16:18.312Z,72.87
2019-02-07T09:19:07.379Z,77.33
2019-02-07T09:21:57.010Z,81.43
2019-02-07T09:24:46.550Z,79.03
2019-02-07T09:27:36.300Z,77.80
2019-02-07T09:30:31.264Z,73.40
2019-02-07T09:33:21.039Z,76.97
2019-02-07T09:36:10.568Z,73.90
2019-02-07T09:38:54.966Z,77.30
2019-02-07T09:41:45.651Z,73.53
2019-02-07T09:44:36.408Z,64.83
2019-02-07T09:47:26.030Z,64.87
2019-02-07T09:50:15.303Z,59.83
2019-02-07T09:53:04.791Z,54.33
2019-02-07T09:55:46.385Z,50.13
2019-02-07T09:58:35.770Z,43.67
2019-02-07T10:01:25.526Z,46.37
2019-02-07T10:04:14.864Z,50.13
2019-02-07T10:07:04.330Z,52.13
2019-02-07T10:09:53.769Z,46.53
2019-02-07T10:12:43.189Z,46.30
2019-02-07T10:15:29.745Z,45.73
2019-02-07T10:18:12.094Z,51.00
2019-02-07T10:21:01.559Z,50.07
2019-02-07T10:23:51.045Z,47.20
2019-02-07T10:26:40.661Z,47.90
2019-02-07T10:29:30.033Z,41.93
2019-02-07T10:32:19.667Z,46.00
2019-02-07T10:35:07.893Z,38.73
2019-02-07T10:37:57.424Z,42.33
2019-02-07T10:40:45.250Z,41.20
2019-02-07T10:43:34.946Z,37.93
2019-02-07T10:46:24.767Z,40.20
2019-02-07T10:49:14.375Z,33.23
2019-02-07T10:52:04.021Z,27.07
2019-02-07T10:54:51.105Z,26.03
2019-02-07T10:57:40.990Z,22.23
2019-02-07T11:00:38.135Z,31.90
2019-02-07T11:03:28.004Z,42.80
2019-02-07T11:06:17.710Z,42.87
2019-02-07T11:09:07.129Z,31.83
2019-02-07T11:11:56.727Z,35.83
2019-02-07T11:14:46.266Z,31.77
2019-02-07T11:17:30.524Z,27.53
2019-02-07T11:20:20.305Z,23.70
2019-02-07T11:23:09.884Z,27.33
2019-02-07T11:25:59.610Z,26.53
2019-02-07T11:28:49.124Z,22.83
2019-02-07T11:31:35.119Z,29.10
2019-02-07T11:34:25.884Z,21.37
2019-02-07T11:37:15.413Z,21.17
2019-02-07T11:40:04.980Z,28.53
2019-02-07T11:42:54.510Z,26.23
2019-02-07T11:45:44.364Z,32.90
2019-02-07T11:48:34.629Z,30.03
2019-02-07T11:51:24.301Z,30.50
2019-02-07T11:54:14.588Z,27.20
2019-02-07T11:57:04.225Z,34.23
2019-02-07T11:59:53.770Z,42.77
2019-02-07T12:02:42.649Z,46.23
2019-02-07T12:05:32.913Z,45.00
2019-02-07T12:08:22.549Z,41.27
2019-02-07T12:11:12.065Z,37.77
2019-02-07T12:14:01.887Z,34.93
2019-02-07T12:16:51.413Z,44.07
2019-02-07T12:19:39.831Z,37.73
2019-02-07T12:22:27.930Z,39.73
2019-02-07T12:25:18.505Z,44.57
2019-02-07T12:28:08.084Z,41.03
2019-02-07T12:30:57.468Z,45.47
2019-02-07T12:33:46.884Z,44.17
2019-02-07T12:36:32.974Z,47.83
2019-02-07T12:39:14.610Z,43.67
2019-02-07T12:42:03.989Z,39.03
2019-02-07T12:44:53.564Z,48.03
2019-02-07T12:47:43.084Z,44.63
2019-02-07T12:50:31.309Z,41.67
2019-02-07T12:53:20.899Z,44.03
2019-02-07T12:56:10.292Z,47.07
2019-02-07T12:58:59.864Z,40.33
2019-02-07T13:01:48.591Z,40.33
2019-02-07T13:04:38.047Z,34.70
2019-02-07T13:07:36.224Z,33.70
2019-02-07T13:10:28.576Z,27.93
2019-02-07T13:13:18.092Z,29.63
2019-02-07T13:16:07.512Z,27.43
2019-02-07T13:18:57.386Z,29.43
2019-02-07T13:21:47.047Z,22.20
2019-02-07T13:24:36.444Z,22.97
2019-02-07T13:27:26.127Z,26.80
2019-02-07T13:30:07.891Z,25.50
2019-02-07T13:32:51.847Z,26.67
2019-02-07T13:35:38.205Z,32.30
2019-02-07T13:38:27.664Z,32.00
2019-02-07T13:41:17.154Z,39.23
2019-02-07T13:44:06.770Z,29.17
2019-02-07T13:46:56.403Z,39.37
2019-02-07T13:49:51.954Z,37.93
2019-02-07T13:52:27.550Z,37.70
2019-02-07T13:55:17.024Z,31.13
2019-02-07T13:57:57.504Z,36.63
2019-02-07T14:00:36.037Z,29.37
2019-02-07T14:03:25.791Z,35.83
2019-02-07T14:06:15.976Z,36.57
2019-02-07T14:09:05.257Z,34.03
2019-02-07T14:11:48.144Z,36.87
2019-02-07T14:14:37.638Z,31.97
2019-02-07T14:17:26.464Z,30.87
2019-02-07T14:20:10.348Z,33.47
2019-02-07T14:22:52.069Z,30.73
2019-02-07T14:25:30.206Z,35.70
2019-02-07T14:28:13.583Z,35.27
2019-02-07T14:31:00.824Z,35.40
2019-02-07T14:33:41.624Z,42.37
2019-02-07T14:36:31.144Z,36.37
2019-02-07T14:39:20.543Z,40.37
2019-02-07T14:42:09.905Z,39.50
2019-02-07T14:44:53.947Z,41.03
2019-02-07T14:47:24.803Z,40.47
2019-02-07T14:49:55.604Z,44.53
2019-02-07T14:52:26.403Z,40.93
2019-02-07T14:54:57.582Z,48.23
2019-02-07T14:57:28.327Z,43.37
2019-02-07T14:59:59.820Z,43.10
2019-02-07T15:02:30.490Z,45.17
2019-02-07T15:05:01.209Z,46.30
2019-02-07T15:07:31.909Z,46.50
2019-02-07T15:10:02.589Z,46.80
2019-02-07T15:12:33.209Z,54.47
2019-02-07T15:15:03.829Z,58.47
2019-02-07T15:17:34.458Z,54.10
2019-02-07T15:20:08.539Z,59.87
2019-02-07T15:22:39.128Z,59.80
2019-02-07T15:25:10.622Z,59.67
2019-02-07T15:27:41.308Z,57.70
2019-02-07T15:30:17.701Z,49.47
2019-02-07T15:32:49.964Z,54.70
2019-02-07T15:35:25.800Z,56.47
2019-02-07T15:38:01.859Z,56.90
2019-02-07T15:40:32.605Z,56.40
2019-02-07T15:43:03.869Z,59.33
2019-02-07T15:45:36.717Z,58.60
2019-02-07T15:48:26.443Z,51.83
2019-02-07T15:51:23.873Z,54.43
2019-02-07T15:54:21.915Z,54.90
2019-02-07T15:56:58.115Z,54.70
2019-02-07T15:59:50.868Z,53.70
2019-02-07T16:02:26.390Z,61.67
2019-02-07T16:05:00.858Z,61.37
2019-02-07T16:07:31.540Z,63.03
2019-02-07T16:10:02.129Z,60.13
2019-02-07T16:12:32.884Z,62.13
2019-02-07T16:15:03.664Z,60.33
2019-02-07T16:17:34.318Z,54.87
2019-02-07T16:20:07.085Z,52.83
2019-02-07T16:22:37.924Z,51.60
2019-02-07T16:25:10.844Z,58.93
2019-02-07T16:27:41.405Z,55.93
2019-02-07T16:30:21.746Z,59.13
2019-02-07T16:32:52.444Z,50.00
2019-02-07T16:35:26.304Z,50.33
2019-02-07T16:38:01.742Z,48.50
2019-02-07T16:40:32.389Z,49.70
2019-02-07T16:43:03.064Z,56.03
2019-02-07T16:45:33.841Z,57.23
2019-02-07T16:48:05.087Z,60.50
2019-02-07T16:50:36.224Z,57.50
2019-02-07T16:53:08.429Z,54.57
2019-02-07T16:55:39.380Z,50.93
2019-02-07T16:58:10.311Z,53.00
2019-02-07T17:00:41.889Z,57.37
2019-02-07T17:03:14.388Z,63.07
2019-02-07T17:05:45.629Z,55.43
2019-02-07T17:08:18.690Z,57.93
2019-02-07T17:10:50.804Z,54.47
2019-02-07T17:13:21.924Z,58.43
2019-02-07T17:15:53.884Z,57.13
2019-02-07T17:18:25.671Z,57.87
2019-02-07T17:20:56.289Z,59.20
2019-02-07T17:23:27.524Z,57.97
2019-02-07T17:25:58.591Z,60.07
2019-02-07T17:28:29.366Z,62.50
2019-02-07T17:31:00.091Z,68.50
2019-02-07T17:33:31.271Z,58.57
2019-02-07T17:36:02.048Z,64.05
2019-02-07T17:38:32.724Z,63.83
2019-02-07T17:41:03.429Z,62.57
2019-02-07T17:43:35.184Z,65.17
2019-02-07T17:46:05.927Z,64.40
2019-02-07T17:48:37.849Z,70.12
2019-02-07T17:51:08.624Z,65.90
2019-02-07T17:53:42.635Z,72.73
2019-02-07T17:56:32.749Z,77.03
2019-02-07T17:59:06.128Z,71.23
2019-02-07T18:01:39.862Z,75.23
2019-02-07T18:04:15.548Z,85.80
2019-02-07T18:06:56.393Z,83.80
2019-02-07T18:09:36.704Z,82.90
2019-02-07T18:12:09.102Z,97.20
2019-02-07T18:14:43.470Z,90.70
2019-02-07T18:17:17.682Z,85.67
2019-02-07T18:19:48.708Z,89.53
2019-02-07T18:22:19.789Z,76.33
2019-02-07T18:24:57.385Z,74.80
2019-02-07T18:27:29.479Z,71.17
2019-02-07T18:30:03.922Z,77.80
2019-02-07T18:32:38.467Z,68.67
2019-02-07T18:35:11.004Z,70.63
2019-02-07T18:37:41.801Z,75.47
2019-02-07T18:40:19.389Z,80.67
2019-02-07T18:42:51.476Z,78.73
2019-02-07T18:45:25.031Z,75.37
2019-02-07T18:47:56.833Z,76.60
2019-02-07T18:50:35.013Z,75.67
2019-02-07T18:53:06.965Z,73.70
2019-02-07T18:55:37.687Z,79.93
2019-02-07T18:58:12.049Z,73.10
2019-02-07T19:00:43.137Z,77.87
2019-02-07T19:03:16.839Z,75.93
2019-02-07T19:05:59.856Z,75.63
2019-02-07T19:08:32.890Z,69.53
2019-02-07T19:11:04.944Z,67.73
2019-02-07T19:13:39.942Z,69.20
2019-02-07T19:16:19.232Z,68.23
2019-02-07T19:18:57.405Z,66.27
2019-02-07T19:21:36.459Z,86.30
2019-02-07T19:24:10.979Z,87.77
2019-02-07T19:26:44.777Z,76.57
2019-02-07T19:29:16.740Z,72.10
2019-02-07T19:31:48.415Z,67.50
2019-02-07T19:34:22.797Z,75.00
2019-02-07T19:36:57.514Z,69.17
2019-02-07T19:39:31.916Z,71.03
2019-02-07T19:42:07.349Z,70.07
2019-02-07T19:44:42.676Z,78.17
2019-02-07T19:47:18.020Z,75.37
2019-02-07T19:49:53.454Z,78.87
2019-02-07T19:52:31.444Z,78.57
2019-02-07T19:55:03.446Z,77.63
2019-02-07T19:57:35.302Z,80.03
2019-02-07T20:00:14.629Z,82.23
2019-02-07T20:02:49.404Z,74.13
2019-02-07T20:05:24.825Z,77.00
2019-02-07T20:07:55.599Z,85.87
2019-02-07T20:10:37.445Z,89.03
2019-02-07T20:13:11.632Z,99.80
2019-02-07T20:15:44.168Z,94.60
2019-02-07T20:18:17.369Z,83.23
2019-02-07T20:20:50.165Z,79.73
2019-02-07T20:23:28.049Z,70.03
2019-02-07T20:26:02.545Z,71.87
2019-02-07T20:28:34.328Z,75.80
2019-02-07T20:31:12.905Z,64.47
2019-02-07T20:33:47.425Z,67.07
2019-02-07T20:36:22.207Z,62.27
2019-02-07T20:38:56.940Z,66.13
2019-02-07T20:41:31.411Z,64.77
2019-02-07T20:44:04.553Z,68.70
2019-02-07T20:46:38.628Z,67.10
2019-02-07T20:49:13.828Z,64.93
2019-02-07T20:51:45.603Z,67.20
2019-02-07T20:54:17.840Z,67.07
2019-02-07T20:56:53.343Z,70.47
2019-02-07T20:59:25.124Z,71.27
2019-02-07T21:01:58.916Z,69.23
2019-02-07T21:04:33.073Z,71.27
2019-02-07T21:07:06.574Z,70.87
2019-02-07T21:09:42.107Z,79.47
2019-02-07T21:12:14.375Z,71.33
2019-02-07T21:14:48.129Z,72.67
2019-02-07T21:17:27.815Z,66.70
2019-02-07T21:19:59.956Z,85.47
2019-02-07T21:22:34.759Z,77.30
2019-02-07T21:25:16.172Z,80.23
2019-02-07T21:27:47.909Z,72.43
2019-02-07T21:30:25.413Z,79.87
2019-02-07T21:32:58.116Z,74.03
2019-02-07T21:35:31.036Z,76.07
2019-02-07T21:38:01.907Z,74.03
2019-02-07T21:40:34.915Z,79.50
2019-02-07T21:43:07.936Z,75.07
2019-02-07T21:45:38.792Z,75.47
2019-02-07T21:48:15.244Z,72.83
2019-02-07T21:50:45.820Z,72.83
2019-02-07T21:53:16.920Z,74.43
2019-02-07T21:55:47.501Z,73.40
2019-02-07T21:58:18.472Z,77.57
2019-02-07T22:00:50.193Z,78.50
2019-02-07T22:03:20.739Z,83.83
2019-02-07T22:05:51.372Z,82.63
2019-02-07T22:08:22.133Z,76.43
2019-02-07T22:10:52.777Z,85.90
2019-02-07T22:13:23.364Z,90.73
2019-02-07T22:15:54.255Z,85.23
2019-02-07T22:18:24.735Z,85.90
2019-02-07T22:20:56.060Z,92.63
2019-02-07T22:23:26.657Z,96.73
2019-02-07T22:25:57.170Z,101.33
2019-02-07T22:28:27.788Z,89.40
2019-02-07T22:30:58.471Z,96.73
2019-02-07T22:33:29.006Z,100.37
2019-02-07T22:35:59.605Z,93.03
2019-02-07T22:38:30.502Z,94.17
2019-02-07T22:41:00.890Z,83.90
2019-02-07T22:43:31.212Z,77.10
2019-02-07T22:46:01.661Z,96.57
2019-02-07T22:48:32.150Z,97.13
2019-02-07T22:51:02.539Z,85.00
2019-02-07T22:53:33.433Z,80.63
2019-02-07T22:56:04.045Z,92.47
2019-02-07T22:58:34.549Z,94.00
2019-02-07T23:01:50.520Z,105.40
2019-02-07T23:04:22.641Z,112.33
2019-02-07T23:06:53.213Z,117.77
2019-02-07T23:09:31.192Z,111.27
2019-02-07T23:12:01.736Z,114.20
2019-02-07T23:14:32.381Z,96.70
2019-02-07T23:17:03.138Z,100.83
2019-02-07T23:19:33.768Z,106.67
2019-02-07T23:22:04.657Z,103.33
2019-02-07T23:24:35.546Z,98.50
2019-02-07T23:27:06.326Z,98.03
2019-02-07T23:29:37.010Z,101.00
2019-02-07T23:32:07.938Z,104.43
2019-02-07T23:34:38.403Z,110.63
2019-02-07T23:37:08.937Z,108.13
2019-02-07T23:39:39.636Z,108.60
2019-02-07T23:42:10.416Z,103.47
2019-02-07T23:44:40.910Z,111.23
2019-02-07T23:47:11.630Z,103.70
2019-02-07T23:49:42.105Z,102.83
2019-02-07T23:52:13.090Z,107.97
2019-02-07T23:54:43.703Z,103.97
2019-02-07T23:57:14.170Z,101.80
2019-02-07T23:59:45.012Z,98.30
